Terminal Aerodrome Forecast
Issued by NWS Cleveland, OH

Home | Current Version | Previous Version | Text Only | Print | Product List | Glossary On
Versions: 1 2 3 4 5 6 7 8 9 10 11 12 13 14 15 16 17 18 19 20 21 22 23
000
FTUS41 KCLE 180545
TAFCAK
TAF
KCAK 180545Z 1806/1906 25006KT 1 1/2SM -SN OVC005
     FM180700 27012KT 4SM -SN BR OVC007
     FM180800 27006KT P6SM BKN015 BKN025
     FM181500 27006KT P6SM SKC
     FM182000 18008KT P6SM BKN250=

USA.gov is the U.S. government's official web portal to all federal, state and local government web resources and services.